createdAt,value
2019-05-10T00:01:30.779Z,14.00
2019-05-10T00:04:37.807Z,13.60
2019-05-10T00:07:32.376Z,13.20
2019-05-10T00:10:05.080Z,12.88
2019-05-10T00:13:09.315Z,12.60
2019-05-10T00:16:30.006Z,15.94
2019-05-10T00:19:13.459Z,16.42
2019-05-10T00:21:47.501Z,15.24
2019-05-10T00:24:29.956Z,14.38
2019-05-10T00:27:03.404Z,13.70
2019-05-10T00:29:37.090Z,13.30
2019-05-10T00:32:10.462Z,12.94
2019-05-10T00:34:43.788Z,12.63
2019-05-10T00:37:17.176Z,12.35
2019-05-10T00:39:50.536Z,12.04
2019-05-10T00:42:24.808Z,11.82
2019-05-10T00:44:58.313Z,14.29
2019-05-10T00:47:31.861Z,17.89
2019-05-10T00:50:05.584Z,17.62
2019-05-10T00:52:39.064Z,16.10
2019-05-10T00:55:19.000Z,14.98
2019-05-10T00:57:49.077Z,14.22
2019-05-10T01:00:22.982Z,13.66
2019-05-10T01:03:02.774Z,13.17
2019-05-10T01:05:37.414Z,12.77
2019-05-10T01:08:14.130Z,12.46
2019-05-10T01:11:15.706Z,12.14
2019-05-10T01:15:23.229Z,11.80
2019-05-10T01:18:07.400Z,11.38
2019-05-10T01:20:41.063Z,14.24
2019-05-10T01:23:15.334Z,17.69
2019-05-10T01:25:49.216Z,17.27
2019-05-10T01:28:23.884Z,15.72
2019-05-10T01:31:04.152Z,14.62
2019-05-10T01:33:39.933Z,13.83
2019-05-10T01:36:20.774Z,13.28
2019-05-10T01:41:53.387Z,12.42
2019-05-10T01:44:27.135Z,12.10
2019-05-10T01:47:47.728Z,11.82
2019-05-10T01:50:21.199Z,11.45
2019-05-10T01:52:56.050Z,13.98
2019-05-10T01:55:30.062Z,17.52
2019-05-10T01:58:03.660Z,17.24
2019-05-10T02:00:37.265Z,15.69
2019-05-10T02:03:12.111Z,14.62
2019-05-10T02:05:47.631Z,13.83
2019-05-10T02:08:23.141Z,13.30
2019-05-10T02:11:00.692Z,12.83
2019-05-10T02:13:35.866Z,12.48
2019-05-10T02:16:11.013Z,12.08
2019-05-10T02:18:45.690Z,11.76
2019-05-10T02:21:19.272Z,11.46
2019-05-10T02:23:53.382Z,11.19
2019-05-10T02:26:26.837Z,10.93
2019-05-10T02:29:00.274Z,13.39
2019-05-10T02:31:33.814Z,17.06
2019-05-10T02:34:07.392Z,16.79
2019-05-10T02:36:41.116Z,15.19
2019-05-10T02:39:15.355Z,14.11
2019-05-10T02:41:49.930Z,13.32
2019-05-10T02:44:23.591Z,12.80
2019-05-10T02:46:57.306Z,12.34
2019-05-10T02:49:35.821Z,11.94
2019-05-10T02:52:19.121Z,11.59
2019-05-10T02:54:47.875Z,11.27
2019-05-10T02:57:23.029Z,13.89
2019-05-10T02:59:57.705Z,17.52
2019-05-10T03:02:32.220Z,16.84
2019-05-10T03:05:09.518Z,15.28
2019-05-10T03:07:43.326Z,14.17
2019-05-10T03:10:18.979Z,13.39
2019-05-10T03:12:55.580Z,12.80
2019-05-10T03:15:37.541Z,12.32
2019-05-10T03:18:13.027Z,11.87
2019-05-10T03:20:50.175Z,11.54
2019-05-10T03:23:25.518Z,13.87
2019-05-10T03:26:00.500Z,17.50
2019-05-10T03:28:35.135Z,17.17
2019-05-10T03:31:09.519Z,15.55
2019-05-10T03:33:44.692Z,14.35
2019-05-10T03:36:18.449Z,13.52
2019-05-10T03:38:52.888Z,12.92
2019-05-10T03:41:28.890Z,12.39
2019-05-10T03:44:02.337Z,11.97
2019-05-10T04:11:20.237Z,11.82
2019-05-10T04:14:32.255Z,11.25
2019-05-10T04:17:08.220Z,14.56
2019-05-10T04:19:41.948Z,15.45
2019-05-10T04:22:15.723Z,14.15
2019-05-10T04:24:49.400Z,13.15
2019-05-10T04:27:32.041Z,12.41
2019-05-10T04:29:59.555Z,11.89
2019-05-10T04:32:34.738Z,11.49
2019-05-10T04:35:10.953Z,14.00
2019-05-10T04:37:44.599Z,17.49
2019-05-10T04:40:18.120Z,17.00
2019-05-10T04:42:51.467Z,15.42
2019-05-10T04:45:24.978Z,14.31
2019-05-10T04:47:58.397Z,13.55
2019-05-10T04:51:03.584Z,12.97
2019-05-10T04:53:41.639Z,12.39
2019-05-10T05:00:09.206Z,11.65
2019-05-10T05:10:26.804Z,13.73
2019-05-10T05:13:34.030Z,13.00
2019-05-10T05:16:49.650Z,12.41
2019-05-10T05:19:25.880Z,11.91
2019-05-10T05:22:00.813Z,14.32
2019-05-10T05:25:04.186Z,17.69
2019-05-10T05:28:06.815Z,17.00
2019-05-10T05:30:30.232Z,15.41
2019-05-10T05:33:11.331Z,14.41
2019-05-10T05:35:47.230Z,13.67
2019-05-10T05:38:21.855Z,13.17
2019-05-10T05:40:56.162Z,12.72
2019-05-10T05:43:30.878Z,14.90
2019-05-10T05:46:05.892Z,18.45
2019-05-10T05:48:41.908Z,18.11
2019-05-10T05:51:16.636Z,16.49
2019-05-10T05:53:50.923Z,15.35
2019-05-10T05:56:25.680Z,14.59
2019-05-10T05:59:00.048Z,14.00
2019-05-10T06:01:34.930Z,13.52
2019-05-10T06:04:15.448Z,13.11
2019-05-10T06:06:53.708Z,15.41
2019-05-10T06:24:29.764Z,13.62
2019-05-10T06:27:05.108Z,15.86
2019-05-10T06:29:38.945Z,18.27
2019-05-10T06:32:12.847Z,17.14
2019-05-10T06:34:47.059Z,15.98
2019-05-10T06:37:20.895Z,15.15
2019-05-10T06:39:55.031Z,14.56
2019-05-10T06:42:34.489Z,14.08
2019-05-10T06:45:11.816Z,13.70
2019-05-10T06:47:53.289Z,16.63
2019-05-10T06:50:31.679Z,19.76
2019-05-10T06:53:10.950Z,19.20
2019-05-10T06:55:41.008Z,17.62
2019-05-10T07:00:47.643Z,15.81
2019-05-10T07:03:21.376Z,15.24
2019-05-10T07:05:55.358Z,14.83
2019-05-10T07:08:43.364Z,14.49
2019-05-10T07:11:25.543Z,16.66
2019-05-10T07:14:06.644Z,20.41
2019-05-10T07:16:42.125Z,19.77
2019-05-10T07:19:53.233Z,18.27
2019-05-10T07:22:21.635Z,17.06
2019-05-10T07:24:57.209Z,16.42
2019-05-10T07:27:29.479Z,15.89
2019-05-10T07:30:03.341Z,15.53
2019-05-10T07:32:37.343Z,15.21
2019-05-10T07:35:11.259Z,17.27
2019-05-10T07:37:47.785Z,20.96
2019-05-10T07:40:20.526Z,20.69
2019-05-10T07:42:54.317Z,19.17
2019-05-10T07:45:30.674Z,18.07
2019-05-10T07:48:08.227Z,17.37
2019-05-10T07:50:42.502Z,16.90
2019-05-10T07:53:16.531Z,16.60
2019-05-10T07:55:50.873Z,16.38
2019-05-10T07:58:24.957Z,16.11
2019-05-10T08:00:59.792Z,18.36
2019-05-10T08:03:35.551Z,19.31
2019-05-10T08:06:10.347Z,18.42
2019-05-10T08:08:46.274Z,17.77
2019-05-10T08:11:20.669Z,17.31
2019-05-10T08:13:57.826Z,17.03
2019-05-10T08:16:29.910Z,16.82
2019-05-10T08:19:03.847Z,16.67
2019-05-10T08:21:37.572Z,19.01
2019-05-10T08:24:15.249Z,19.80
2019-05-10T08:29:19.276Z,18.45
2019-05-10T08:31:56.091Z,18.12
2019-05-10T08:34:35.455Z,17.96
2019-05-10T08:37:05.929Z,17.82
2019-05-10T08:39:47.145Z,17.74
2019-05-10T08:42:32.645Z,20.42
2019-05-10T08:44:53.667Z,21.40
2019-05-10T08:47:27.874Z,20.60
2019-05-10T08:50:17.976Z,19.97
2019-05-10T08:52:37.312Z,19.65
2019-05-10T08:55:12.362Z,19.44
2019-05-10T08:57:49.220Z,19.28
2019-05-10T09:00:38.352Z,19.15
2019-05-10T09:03:00.941Z,19.07
2019-05-10T09:05:34.069Z,19.01
2019-05-10T09:08:11.646Z,19.00
2019-05-10T09:10:43.585Z,21.69
2019-05-10T09:13:17.457Z,22.66
2019-05-10T09:15:56.144Z,21.95
2019-05-10T09:18:26.897Z,21.35
2019-05-10T09:21:08.554Z,21.03
2019-05-10T09:23:36.002Z,20.83
2019-05-10T09:26:16.181Z,20.70
2019-05-10T09:28:47.702Z,20.56
2019-05-10T09:31:25.548Z,20.49
2019-05-10T09:33:57.188Z,20.39
2019-05-10T09:36:35.357Z,20.36
2019-05-10T09:39:09.122Z,20.28
2019-05-10T09:41:44.655Z,20.22
2019-05-10T09:44:19.162Z,20.14
2019-05-10T09:46:52.982Z,20.08
2019-05-10T09:49:26.637Z,20.03
2019-05-10T09:52:04.619Z,19.93
2019-05-10T09:54:37.916Z,19.83
2019-05-10T09:57:11.277Z,19.76
2019-05-10T09:59:47.022Z,19.69
2019-05-10T10:02:20.806Z,19.58
2019-05-10T10:04:58.602Z,19.48
2019-05-10T10:07:33.451Z,19.38
2019-05-10T10:10:12.540Z,19.31
2019-05-10T10:12:43.129Z,19.20
2019-05-10T10:15:28.165Z,19.14
2019-05-10T10:17:52.328Z,19.11
2019-05-10T10:20:29.797Z,19.11
2019-05-10T10:23:01.214Z,19.10
2019-05-10T10:25:39.857Z,19.05
2019-05-10T10:28:16.905Z,19.03
2019-05-10T10:30:52.661Z,18.94
2019-05-10T10:33:26.336Z,18.90
2019-05-10T10:36:04.973Z,18.87
2019-05-10T10:38:44.766Z,18.84
2019-05-10T10:41:11.842Z,18.82
2019-05-10T10:43:58.147Z,18.76
2019-05-10T10:46:34.557Z,18.77
2019-05-10T10:49:14.515Z,18.75
2019-05-10T10:51:47.813Z,18.75
2019-05-10T10:54:22.402Z,18.72
2019-05-10T10:56:59.549Z,18.72
2019-05-10T10:59:32.574Z,18.73
2019-05-10T11:02:29.022Z,18.73
2019-05-10T11:04:46.692Z,18.73
2019-05-10T11:07:17.449Z,18.73
2019-05-10T11:09:53.866Z,18.70
2019-05-10T11:12:30.748Z,18.70
2019-05-10T11:15:04.891Z,18.67
2019-05-10T11:17:40.746Z,18.62
2019-05-10T11:20:14.286Z,18.60
2019-05-10T11:22:52.270Z,18.58
2019-05-10T11:25:23.537Z,18.55
2019-05-10T11:27:59.308Z,18.49
2019-05-10T11:30:32.752Z,18.48
2019-05-10T11:33:06.668Z,18.46
2019-05-10T11:35:41.704Z,18.45
2019-05-10T11:38:16.268Z,18.45
2019-05-10T11:40:50.462Z,18.44
2019-05-10T11:43:26.948Z,18.45
2019-05-10T11:45:58.785Z,18.46
2019-05-10T11:48:37.375Z,18.48
2019-05-10T11:51:15.366Z,18.51
2019-05-10T11:53:41.897Z,18.55
2019-05-10T11:56:15.547Z,18.59
2019-05-10T11:58:55.016Z,18.65
2019-05-10T12:01:25.099Z,18.70
2019-05-10T12:04:04.723Z,18.75
2019-05-10T12:06:41.457Z,18.77
2019-05-10T12:09:12.518Z,18.86
2019-05-10T12:11:51.909Z,18.93
2019-05-10T12:14:22.033Z,18.98
2019-05-10T12:16:57.359Z,19.08
2019-05-10T12:19:36.744Z,19.15
2019-05-10T12:22:06.584Z,19.28
2019-05-10T12:26:36.003Z,19.38
2019-05-10T12:27:25.525Z,19.46
2019-05-10T12:29:55.585Z,19.56
2019-05-10T12:32:26.962Z,19.60
2019-05-10T12:35:02.147Z,19.63
2019-05-10T12:37:39.702Z,19.69
2019-05-10T12:40:15.034Z,19.73
2019-05-10T12:42:48.218Z,19.79
2019-05-10T12:45:23.352Z,19.88
2019-05-10T12:47:57.458Z,19.94
2019-05-10T12:50:31.147Z,19.96
2019-05-10T12:53:14.005Z,20.03
2019-05-10T12:55:40.319Z,20.13
2019-05-10T12:58:14.127Z,20.18
2019-05-10T13:00:58.855Z,20.25
2019-05-10T13:03:33.553Z,20.31
2019-05-10T13:06:07.633Z,20.32
2019-05-10T13:08:42.876Z,20.28
2019-05-10T13:11:18.870Z,20.29
2019-05-10T13:13:53.188Z,20.29
2019-05-10T13:16:27.800Z,20.33
2019-05-10T13:19:01.715Z,20.36
2019-05-10T13:21:58.758Z,20.39
2019-05-10T13:24:33.840Z,20.46
2019-05-10T13:27:09.198Z,20.46
2019-05-10T13:29:47.045Z,20.48
2019-05-10T13:32:20.552Z,20.45
2019-05-10T13:34:55.725Z,20.45
2019-05-10T13:37:31.204Z,20.39
2019-05-10T13:40:07.754Z,20.42
2019-05-10T13:42:45.931Z,20.41
2019-05-10T13:45:17.218Z,20.39
2019-05-10T13:47:51.004Z,20.33
2019-05-10T13:50:26.244Z,20.31
2019-05-10T13:53:00.516Z,20.31
2019-05-10T13:55:34.444Z,20.25
2019-05-10T13:58:10.960Z,20.22
2019-05-10T14:00:45.162Z,20.15
2019-05-10T14:03:18.595Z,20.13
2019-05-10T14:05:51.964Z,20.11
2019-05-10T14:08:25.420Z,20.03
2019-05-10T14:11:01.663Z,20.00
2019-05-10T14:13:35.592Z,19.96
2019-05-10T14:16:18.474Z,19.87
2019-05-10T14:18:45.159Z,19.87
2019-05-10T14:21:18.616Z,19.83
2019-05-10T14:23:51.913Z,19.79
2019-05-10T14:26:25.278Z,19.76
2019-05-10T14:28:58.707Z,19.70
2019-05-10T14:31:32.178Z,19.66
2019-05-10T14:34:15.133Z,19.62
2019-05-10T14:36:41.375Z,19.55
2019-05-10T14:39:15.502Z,19.50
2019-05-10T14:41:50.894Z,19.42
2019-05-10T14:44:23.749Z,19.34
2019-05-10T14:46:57.373Z,19.28
2019-05-10T14:49:31.395Z,19.21
2019-05-10T14:52:04.776Z,19.18
2019-05-10T14:54:43.579Z,19.14
2019-05-10T14:57:13.250Z,19.14
2019-05-10T14:59:46.803Z,19.12
2019-05-10T15:02:22.801Z,19.12
2019-05-10T15:04:55.549Z,19.10
2019-05-10T15:07:28.984Z,19.11
2019-05-10T15:10:02.615Z,19.07
2019-05-10T15:12:36.089Z,19.04
2019-05-10T15:15:16.179Z,18.98
2019-05-10T15:18:01.250Z,18.95
2019-05-10T15:20:35.702Z,18.88
2019-05-10T15:23:09.527Z,18.82
2019-05-10T15:25:56.927Z,18.75
2019-05-10T15:31:41.017Z,18.51
2019-05-10T15:38:05.844Z,18.29
2019-05-10T15:42:30.321Z,18.21
2019-05-10T15:44:42.879Z,18.12
2019-05-10T15:47:20.653Z,18.04
2019-05-10T15:49:54.595Z,17.99
2019-05-10T15:52:27.395Z,17.90
2019-05-10T15:55:01.156Z,17.82
2019-05-10T15:57:34.490Z,17.76
2019-05-10T16:00:08.535Z,17.70
2019-05-10T16:02:44.142Z,17.62
2019-05-10T16:05:25.942Z,17.55
2019-05-10T16:07:53.386Z,17.50
2019-05-10T16:10:38.613Z,17.42
2019-05-10T16:20:59.276Z,17.22
2019-05-10T16:23:41.523Z,17.15
2019-05-10T16:26:17.375Z,17.10
2019-05-10T16:28:53.074Z,17.01
2019-05-10T16:31:27.804Z,16.96
2019-05-10T16:34:03.104Z,16.89
2019-05-10T16:36:38.457Z,16.82
2019-05-10T16:39:14.577Z,16.77
2019-05-10T16:41:51.347Z,16.69
2019-05-10T16:44:28.835Z,16.67
2019-05-10T16:47:04.296Z,16.62
2019-05-10T16:49:38.438Z,16.56
2019-05-10T16:52:11.988Z,16.53
2019-05-10T16:54:46.032Z,16.49
2019-05-10T16:57:19.554Z,19.07
2019-05-10T16:59:52.957Z,22.76
2019-05-10T17:02:26.485Z,22.61
2019-05-10T17:05:00.742Z,21.35
2019-05-10T17:07:34.338Z,20.45
2019-05-10T17:10:09.188Z,19.86
2019-05-10T17:12:42.764Z,19.45
2019-05-10T17:15:18.151Z,19.11
2019-05-10T17:17:52.125Z,18.86
2019-05-10T17:20:25.924Z,18.62
2019-05-10T17:23:08.353Z,18.36
2019-05-10T17:25:40.601Z,18.18
2019-05-10T17:28:11.957Z,18.01
2019-05-10T17:30:54.197Z,17.83
2019-05-10T17:33:28.275Z,17.66
2019-05-10T17:36:08.318Z,17.49
2019-05-10T17:38:37.137Z,17.35
2019-05-10T17:41:10.510Z,17.21
2019-05-10T17:43:43.743Z,19.65
2019-05-10T17:46:18.704Z,23.27
2019-05-10T17:48:52.134Z,23.16
2019-05-10T17:51:25.415Z,21.72
2019-05-10T17:54:01.638Z,20.73
2019-05-10T17:56:38.861Z,20.05
2019-05-10T17:59:12.039Z,19.60
2019-05-10T18:01:45.166Z,19.22
2019-05-10T18:04:19.321Z,18.93
2019-05-10T18:06:53.646Z,18.65
2019-05-10T18:09:27.388Z,18.38
2019-05-10T18:12:00.918Z,18.15
2019-05-10T18:14:34.592Z,17.94
2019-05-10T18:17:08.690Z,17.74
2019-05-10T18:19:43.271Z,17.55
2019-05-10T18:49:43.050Z,17.56
2019-05-10T18:52:37.214Z,17.32
2019-05-10T18:55:13.870Z,19.77
2019-05-10T18:58:05.350Z,20.80
2019-05-10T19:00:40.278Z,19.74
2019-05-10T19:03:15.673Z,19.04
2019-05-10T19:05:49.260Z,18.51
2019-05-10T19:08:23.385Z,18.15
2019-05-10T19:10:57.287Z,17.86
2019-05-10T19:13:34.185Z,17.61
2019-05-10T19:16:08.030Z,17.39
2019-05-10T19:18:42.353Z,19.93
2019-05-10T19:21:16.873Z,21.04
2019-05-10T19:23:52.217Z,20.04
2019-05-10T19:26:49.598Z,19.21
2019-05-10T19:29:27.906Z,18.54
2019-05-10T19:32:02.604Z,18.14
2019-05-10T19:34:36.627Z,17.83
2019-05-10T19:37:31.315Z,17.56
2019-05-10T19:39:59.335Z,17.31
2019-05-10T19:42:37.134Z,17.08
2019-05-10T19:45:12.981Z,16.87
2019-05-10T19:47:49.842Z,16.72
2019-05-10T19:50:24.109Z,16.52
2019-05-10T19:53:03.659Z,16.36
2019-05-10T19:55:35.572Z,19.10
2019-05-10T19:58:09.230Z,20.32
2019-05-10T20:00:45.559Z,19.32
2019-05-10T20:03:22.323Z,18.52
2019-05-10T20:05:56.151Z,17.96
2019-05-10T20:08:29.982Z,17.57
2019-05-10T20:11:03.638Z,17.29
2019-05-10T20:13:37.483Z,17.06
2019-05-10T20:16:11.274Z,16.83
2019-05-10T20:18:45.062Z,16.63
2019-05-10T20:21:18.900Z,18.88
2019-05-10T20:23:55.268Z,22.52
2019-05-10T20:26:28.991Z,22.35
2019-05-10T20:29:02.972Z,20.91
2019-05-10T20:31:38.340Z,19.88
2019-05-10T20:34:12.869Z,19.21
2019-05-10T20:36:46.734Z,18.69
2019-05-10T20:39:20.467Z,18.25
2019-05-10T20:52:13.567Z,16.84
2019-05-10T20:54:47.447Z,16.64
2019-05-10T20:57:21.575Z,16.45
2019-05-10T20:59:58.970Z,18.94
2019-05-10T21:02:33.030Z,22.25
2019-05-10T21:05:07.375Z,21.90
2019-05-10T21:07:41.182Z,20.48
2019-05-10T21:10:16.101Z,19.48
2019-05-10T21:12:49.863Z,18.80
2019-05-10T21:15:24.668Z,18.32
2019-05-10T21:17:58.372Z,17.91
2019-05-10T21:20:32.044Z,17.59
2019-05-10T21:23:05.598Z,17.28
2019-05-10T21:25:39.254Z,17.04
2019-05-10T21:28:12.863Z,16.77
2019-05-10T21:30:46.443Z,16.55
2019-05-10T21:33:20.142Z,18.83
2019-05-10T21:35:53.839Z,22.08
2019-05-10T21:38:33.052Z,21.66
2019-05-10T21:41:03.187Z,20.24
2019-05-10T21:43:36.782Z,19.31
2019-05-10T21:46:10.442Z,18.63
2019-05-10T21:48:44.012Z,18.12
2019-05-10T21:51:17.621Z,17.73
2019-05-10T21:53:51.148Z,17.38
2019-05-10T21:56:24.589Z,17.07
2019-05-10T21:58:58.071Z,16.76
2019-05-10T22:01:31.693Z,16.49
2019-05-10T22:04:05.238Z,16.24
2019-05-10T22:06:39.826Z,16.00
2019-05-10T22:09:13.375Z,18.42
2019-05-10T22:11:46.991Z,21.97
2019-05-10T22:14:20.501Z,21.66
2019-05-10T22:16:54.274Z,20.14
2019-05-10T22:19:27.915Z,19.10
2019-05-10T22:22:01.688Z,18.33
2019-05-10T22:24:35.446Z,17.77
2019-05-10T22:27:10.059Z,17.35
2019-05-10T22:29:43.681Z,16.99
2019-05-10T22:32:18.176Z,16.62
2019-05-10T22:34:52.639Z,16.32
2019-05-10T22:37:26.428Z,16.06
2019-05-10T22:40:00.233Z,15.76
2019-05-10T22:42:34.358Z,15.51
2019-05-10T22:45:08.788Z,17.89
2019-05-10T22:47:42.568Z,20.97
2019-05-10T22:50:16.583Z,20.56
2019-05-10T22:52:50.290Z,19.15
2019-05-10T22:55:24.105Z,18.15
2019-05-10T22:57:57.780Z,17.50
2019-05-10T23:00:32.806Z,17.01
2019-05-10T23:03:06.571Z,16.59
2019-05-10T23:05:40.360Z,16.21
2019-05-10T23:08:14.107Z,15.91
2019-05-10T23:10:48.203Z,15.65
2019-05-10T23:13:21.919Z,15.41
2019-05-10T23:15:58.538Z,15.15
2019-05-10T23:18:33.939Z,17.57
2019-05-10T23:21:08.017Z,20.63
2019-05-10T23:23:41.723Z,20.15
2019-05-10T23:26:15.502Z,18.82
2019-05-10T23:28:49.652Z,17.83
2019-05-10T23:31:23.333Z,17.14
2019-05-10T23:33:57.165Z,16.63
2019-05-10T23:36:31.164Z,16.23
2019-05-10T23:39:07.604Z,15.87
2019-05-10T23:41:41.316Z,15.55
2019-05-10T23:44:15.123Z,15.25
2019-05-10T23:46:49.849Z,14.98
2019-05-10T23:49:23.633Z,17.42
2019-05-10T23:51:57.357Z,20.17
2019-05-10T23:54:31.683Z,19.21
2019-05-10T23:57:05.428Z,17.94
2019-05-10T23:59:39.824Z,17.13
